This is the latest recevied weather packets stored in our database for station/object VE8SKI. If no packets are shown the sender has not sent any weather packets the latest 10 day(s).
| Time | Temp. | Humidity | Pressure | Rain* | Wind** | Luminosity | Snow |
|---|---|---|---|---|---|---|---|
| 1777557064 | 3.33° C | 64% | 1018.7 hPa | 0 mm | 0 m/s | - | - |
| 1777556764 | 3.89° C | 63% | 1018.9 hPa | 0 mm | 0 m/s | - | - |
| 1777556464 | 3.33° C | 64% | 1018.9 hPa | 0 mm | 0 m/s | - | - |
| 1777556165 | 3.33° C | 66% | 1019 hPa | 0 mm | 0 m/s | - | - |
| 1777555865 | 2.78° C | 68% | 1019.1 hPa | 0 mm | 0 m/s | - | - |
| 1777555566 | 2.78° C | 68% | 1019.2 hPa | 0 mm | 0 m/s | - | - |
| 1777555263 | 2.78° C | 70% | 1019.4 hPa | 0 mm | 0 m/s | - | - |
| 1777554963 | 2.22° C | 70% | 1019.6 hPa | 0 mm | 0 m/s | - | - |
| 1777554664 | 1.67° C | 73% | 1019.7 hPa | 0 mm | 0 m/s | - | - |
| 1777554364 | 1.11° C | 75% | 1019.8 hPa | 0 mm | 0 m/s | - | - |
| 1777554064 | 0.56° C | 80% | 1019.9 hPa | 0 mm | 0 m/s | - | - |
| 1777553765 | 0° C | 83% | 1019.9 hPa | 0 mm | 0 m/s | - | - |
| 1777553462 | -0.56° C | 85% | 1020.1 hPa | 0 mm | 0 m/s | - | - |
| 1777553163 | -1.11° C | 88% | 1020.1 hPa | 0 mm | 0 m/s | - | - |
| 1777552863 | -1.67° C | 90% | 1020.2 hPa | 0 mm | 0 m/s | - | - |
| 1777552563 | -1.67° C | 91% | 1020.2 hPa | 0 mm | 0 m/s | - | - |
| 1777552263 | -2.22° C | 91% | 1020.2 hPa | 0 mm | 0 m/s | - | - |
| 1777551964 | -2.22° C | 91% | 1020.2 hPa | 0 mm | 0 m/s | - | - |
| 1777551661 | -2.78° C | 91% | 1020.2 hPa | 0 mm | 0 m/s | - | - |
| 1777551361 | -2.22° C | 90% | 1020.3 hPa | 0 mm | 0 m/s | - | - |
| 1777551062 | -2.22° C | 90% | 1020.3 hPa | 0 mm | 0 m/s | - | - |
| 1777550767 | -2.22° C | 90% | 1020.3 hPa | 0 mm | 0 m/s | - | - |
| 1777550462 | -2.22° C | 90% | 1020.4 hPa | 0 mm | 0 m/s | - | - |
| 1777550163 | -2.22° C | 90% | 1020.4 hPa | 0 mm | 0 m/s | - | - |
| 1777549860 | -2.22° C | 89% | 1020.4 hPa | 0 mm | 0 m/s | - | - |
* Rain latest hour (hover to see other rain measurements)
** Current wind speed in m/s (hover to see current wind gust speed)